フェアバンクス国際空港の過去48時間の天気

フェアバンクス国際空港 (Fairbanks, Fairbanks International Airport)

現在時刻: 9/28 01:30 AKDT (9/28 09:30 UTC) 以下の時間は現地時間です。

過去48時間のMETAR気象情報
時間 風向 風速(m/s) 視程 気温(℃) 湿度(%) 気圧(hPa) 天気現象
28 00:53 4 10km以上 5 73 991.9
27 23:53 4 10km以上 6.1 68 991.3
27 22:53 5 10km以上 6.1 70 990.7
27 21:53 4 10km以上 6.7 67 989.8
27 20:53 北北東 5 10km以上 7.2 68 989.5
27 19:53 北東 4 10km以上 8.9 63 988.8
27 18:53 東北東 5 10km以上 11.7 52 988.7
27 17:53 北東 5 10km以上 11.7 52 988.6
27 16:53 東北東 6 10km以上 13.3 47 988.4
27 15:53 東北東 5 10km以上 14.4 44 988.6
27 14:53 北東 5 10km以上 14.4 47 988.9
27 13:53 北東 6 10km以上 13.9 47 990.4
27 12:53 北東 5 10km以上 13.3 49 991.6
27 11:53 北東 4 10km以上 10.6 61 993
PAFA 280853Z 35007KT 10SM SCT050 SCT080 05/01 A2928 RMK AO2 SLP919 T00500006 401500017 51021
PAFA 280753Z 35008KT 10SM SCT055 SCT075 06/01 A2926 RMK AO2 SLP913 T00610006
PAFA 280653Z 36009KT 10SM SCT055 SCT075 06/01 A2924 RMK AO2 SLP907 T00610011
PAFA 280553Z 36008KT 10SM SCT065 07/01 A2921 RMK AO2 SLP898 T00670011 10144 20067 53011
PAFA 280453Z 02009KT 10SM SCT070 07/02 A2920 RMK AO2 SLP895 T00720017
PAFA 280353Z 04007KT 10SM SCT065 BKN080 09/02 A2918 RMK AO2 SLP888 T00890022
PAFA 280253Z 07010KT 10SM FEW040 BKN065 12/02 A2918 RMK AO2 SLP887 T01170022 53001
PAFA 280153Z 05009KT 10SM SCT060 BKN080 12/02 A2918 RMK AO2 SLP886 T01170022
PAFA 280053Z 07012KT 10SM SCT060 BKN090 13/02 A2918 RMK AO2 SLP884 T01330022
PAFA 272353Z 06010KT 10SM FEW050 SCT070 BKN150 14/02 A2918 RMK AO2 SLP886 T01440022 10150 20061 56029
PAFA 272253Z 04009KT 10SM FEW070 SCT120 BKN180 14/03 A2919 RMK AO2 SLP889 T01440033
PAFA 272153Z 05011KT 10SM FEW070 SCT120 BKN180 14/03 A2923 RMK AO2 SLP904 T01390028
PAFA 272053Z 04010KT 10SM FEW070 SCT120 BKN180 13/03 A2927 RMK AO2 SLP916 T01330028 58033
PAFA 271953Z 05007KT 10SM FEW070 SCT090 SCT180 11/03 A2931 RMK AO2 SLP930 T01060033